Latest Coastal Weather Observations for Hervey Bay

IDQ60701

Issued at 8:32 am EST Tuesday 16 April 2024 (issued every 10 minutes, with the page automatically refreshed every 10 minutes)

About coastal observations | Map of coastal stations | Coastal observations for QLD | Marine services | Other Formats
Station Details ID: 040405 Name: HERVEY BAY AIRPORT Lat: -25.32 Lon: 152.88 Height: 12.98 m
Data from the previous 72 hours. | See also: Recent months at Hervey Bay
Date/Time
EST
Wind Sea
Height
m
Swell Vis
km
Cloud Weather Temp
°C
Press
MSL
hPa
Rain since
9am
mm
Dir  Spd
kts
Gust
kts
Height
m
Period
s
Dir
16/08:30am SSW 6 7 - - - - 10 Partly cloudy - 21.7 1022.9 0.0
16/08:00am SSW 6 8 - - - - 10 Partly cloudy - 20.2 1022.5 0.0
16/07:30am SSW 7 10 - - - - 10 - - 19.2 1022.4 0.0
16/07:00am SSW 7 9 - - - - 10 - - 18.2 1022.3 0.0
16/06:30am SW 4 6 - - - - 10 - - 17.6 1022.2 0.0
16/06:00am SW 3 5 - - - - 10 - - 17.3 1021.9 0.0
16/05:30am SW 3 4 - - - - 10 Partly cloudy - 17.3 1021.6 0.0
16/05:00am SW 1 4 - - - - 10 Partly cloudy - 17.2 1021.5 0.0
16/04:30am SSW 5 6 - - - - 10 - - 17.3 1021.1 0.0
16/04:00am SSW 5 6 - - - - 10 - - 17.4 1021.1 0.0
16/03:30am SSW 2 4 - - - - 10 - - 17.4 1021.0 0.0
16/03:00am SSW 5 6 - - - - 10 - - 17.6 1021.2 0.0
16/02:30am SSW 5 6 - - - - 10 - - 17.7 1021.3 0.0
16/02:00am SW 4 6 - - - - 10 - - 17.7 1021.4 0.0
16/01:30am CALM 0 0 - - - - 10 - - 17.5 1021.6 0.0
16/01:00am SSW 3 4 - - - - 10 - - 17.9 1021.8 0.0
16/12:30am SSW 4 4 - - - - 10 - - 18.0 1022.0 0.0
16/12:00am SSW 5 6 - - - - 10 - - 18.0 1022.4 0.0
 
Date/Time
EST
Wind Sea
Height
m
Swell Vis
km
Cloud Weather Temp
°C
Press
MSL
hPa
Rain since
9am
mm
Dir  Spd
kts
Gust
kts
Height
m
Period
s
Dir
15/11:30pm SSW 4 4 - - - - 10 - - 17.5 1022.6 0.0
15/11:00pm CALM 0 0 - - - - 10 - - 17.9 1022.9 0.0
15/10:30pm SSW 3 4 - - - - 10 - - 18.0 1023.1 0.0
15/10:00pm SW 3 4 - - - - 10 - - 18.4 1023.2 0.0
15/09:30pm S 3 4 - - - - 10 Partly cloudy - 18.9 1023.3 0.0
15/09:00pm SSE 3 4 - - - - 10 - - 19.9 1023.4 0.0
15/08:30pm SE 4 5 - - - - 10 - - 21.4 1023.4 0.0
15/08:00pm SE 5 7 - - - - 10 - - 22.2 1023.1 0.0
15/07:30pm SE 6 9 - - - - 10 - - 22.8 1023.1 0.0
15/07:00pm ESE 6 9 - - - - 10 - - 22.9 1022.8 0.0
15/06:30pm ESE 7 10 - - - - 10 - - 23.2 1022.4 0.0
15/06:00pm ESE 8 11 - - - - 10 - - 23.6 1022.1 0.0
15/05:30pm SE 8 12 - - - - 10 - - 23.8 1021.8 0.0
15/05:00pm ESE 8 12 - - - - 10 - - 24.6 1021.7 0.0
15/04:30pm ESE 10 14 - - - - 10 - - 25.4 1021.5 0.0
15/04:00pm ESE 11 14 - - - - 10 - - 25.9 1021.4 0.0
15/03:30pm ESE 10 15 - - - - 10 - - 26.5 1021.1 0.0
15/03:00pm ESE 11 16 - - - - 10 - - 26.6 1021.2 0.0
15/02:30pm SE 10 15 - - - - 10 - - 26.9 1021.3 0.0
15/02:00pm ESE 11 15 - - - - 10 - - 27.1 1021.2 0.0
15/01:30pm ESE 13 18 - - - - 10 - - 26.9 1021.4 0.0
15/01:00pm ESE 12 16 - - - - 10 - - 27.6 1021.4 0.0
15/12:30pm ESE 11 15 - - - - 10 - - 27.2 1021.6 0.0
15/12:00pm ESE 10 15 - - - - 10 - - 27.6 1022.0 0.0
15/11:30am ESE 11 15 - - - - 10 - - 27.4 1022.3 0.0
15/11:00am ESE 11 16 - - - - 10 - - 26.9 1022.6 0.0
15/10:30am ESE 11 17 - - - - 10 - - 27.4 1022.9 0.0
15/10:00am SE 9 12 - - - - 10 - - 26.2 1023.2 0.0
15/09:30am SE 7 11 - - - - 10 - - 26.2 1023.2 0.0
15/09:00am S 5 7 - - - - 10 - - 24.1 1023.4 0.0
15/08:30am SSW 7 9 - - - - 10 - - 22.6 1023.3 0.0
15/08:00am SSW 6 9 - - - - 10 - - 20.8 1023.0 0.0
15/07:30am SSW 5 8 - - - - 10 - - 19.3 1022.8 0.0
15/07:00am SW 3 7 - - - - 10 - - 18.1 1022.5 0.0
15/06:30am SW 5 7 - - - - 10 Partly cloudy - 17.5 1022.3 0.0
15/06:00am SW 5 6 - - - - 10 Partly cloudy - 17.5 1022.0 0.0
15/05:30am SSW 5 6 - - - - 10 Partly cloudy - 17.6 1021.9 0.0
15/05:00am SSW 4 6 - - - - 10 - - 17.2 1021.6 0.0
15/04:30am SW 3 5 - - - - 10 - - 17.3 1021.5 0.0
15/04:00am SW 4 5 - - - - 10 - - 17.3 1021.5 0.0
15/03:30am SSW 4 6 - - - - 10 Partly cloudy - 17.6 1021.6 0.0
15/03:00am SW 4 6 - - - - 10 Partly cloudy - 17.8 1021.8 0.0
15/02:30am SSW 4 6 - - - - 10 - - 17.6 1022.0 0.0
15/02:00am SW 4 5 - - - - 10 - - 17.5 1022.0 0.0
15/01:30am SSW 5 6 - - - - 10 - - 17.5 1022.0 0.0
15/01:00am CALM 0 0 - - - - 10 - - 17.2 1022.5 0.0
15/12:30am SW 1 3 - - - - 10 - - 17.5 1022.7 0.0
15/12:00am SSW 3 4 - - - - 10 - - 17.4 1022.9 0.0
 
Date/Time
EST
Wind Sea
Height
m
Swell Vis
km
Cloud Weather Temp
°C
Press
MSL
hPa
Rain since
9am
mm
Dir  Spd
kts
Gust
kts
Height
m
Period
s
Dir
14/11:30pm SSW 2 3 - - - - 10 - - 17.5 1022.9 0.0
14/11:00pm CALM 0 0 - - - - 10 - - 17.7 1022.8 0.0
14/10:30pm CALM 0 0 - - - - 10 - - 18.1 1022.9 0.0
14/10:00pm CALM 0 0 - - - - 10 - - 18.3 1022.9 0.0
14/09:30pm CALM 0 0 - - - - 10 - - 18.8 1022.9 0.0
14/09:00pm CALM 0 0 - - - - 10 - - 19.5 1022.8 0.0
14/08:30pm S 3 5 - - - - 10 - - 20.3 1022.8 0.0
14/08:00pm SSE 4 5 - - - - 10 Partly cloudy - 21.7 1022.5 0.0
14/07:30pm SSE 4 6 - - - - 10 Partly cloudy - 21.8 1022.2 0.0
14/07:00pm SSE 4 6 - - - - 10 Partly cloudy - 22.1 1021.9 0.0
14/06:30pm SSE 4 6 - - - - 10 - - 22.4 1021.9 0.0
14/06:00pm SSE 5 7 - - - - 10 - - 22.8 1021.7 0.0
14/05:30pm SE 6 9 - - - - 10 - - 23.5 1021.4 0.0
14/05:00pm SE 7 11 - - - - 10 - - 24.4 1021.4 0.0
14/04:30pm SE 8 12 - - - - 10 - - 25.2 1021.0 0.0
14/04:00pm SE 7 12 - - - - 10 - - 25.9 1020.6 0.0
14/03:30pm SE 9 13 - - - - 10 - - 26.2 1020.4 0.0
14/03:00pm SE 9 14 - - - - 10 - - 26.4 1020.3 0.0
14/02:30pm SE 9 15 - - - - 10 - - 26.9 1020.3 0.0
14/02:00pm SE 9 14 - - - - 10 - - 26.5 1020.5 0.0
14/01:30pm ESE 9 13 - - - - 10 - - 26.8 1020.6 0.0
14/01:00pm SE 9 13 - - - - 10 - - 26.7 1020.8 0.0
14/12:30pm SE 8 15 - - - - 10 - - 26.8 1021.2 0.0
14/12:00pm SE 9 15 - - - - 10 - - 26.9 1021.4 0.0
14/11:30am SE 10 15 - - - - 10 - - 26.7 1021.6 0.0
14/11:00am SE 8 13 - - - - 10 - - 26.9 1022.0 0.0
14/10:30am SE 8 11 - - - - 10 - - 26.2 1022.3 0.0
14/10:00am SE 7 9 - - - - 10 - - 26.3 1022.6 0.0
14/09:30am SSE 5 8 - - - - 10 - - 25.2 1022.5 0.0
14/09:00am SW 7 9 - - - - 10 - - 23.3 1022.8 0.0
14/08:30am SSW 6 7 - - - - 10 - - 22.2 1022.4 0.0
14/08:00am SSW 7 10 - - - - 10 - - 20.0 1022.2 0.0
14/07:30am SSW 7 11 - - - - 10 - - 18.5 1022.0 0.0
14/07:00am SSW 6 8 - - - - 10 - - 17.5 1021.5 0.0
14/06:30am SW 5 8 - - - - 10 - - 17.1 1021.4 0.0
14/06:00am SW 5 7 - - - - 10 - - 16.9 1021.2 0.0
14/05:30am SW 4 5 - - - - 10 - - 16.8 1020.8 0.0
14/05:00am SW 3 6 - - - - 10 - - 16.8 1020.5 0.0
14/04:30am SW 4 6 - - - - 10 - - 16.9 1020.4 0.0
14/04:00am SW 5 7 - - - - 10 - - 17.2 1020.4 0.0
14/03:30am SW 5 7 - - - - 10 - - 17.3 1020.4 0.0
14/03:00am SSW 4 6 - - - - 10 - - 17.2 1020.2 0.0
14/02:34am SSW 4 5 - - - - 10 - - 17.1 1020.3 0.0
14/02:30am SSW 4 4 - - - - 10 - - 17.1 1020.3 0.0
14/02:16am SW 3 5 - - - - 5 - - 17.3 1020.4 0.0
14/02:03am SW 4 5 - - - - 6 - - 17.4 1020.5 0.0
14/02:00am SW 4 5 - - - - 6 - - 17.4 1020.4 0.0
14/01:50am SW 4 5 - - - - 5 - - 17.4 1020.4 0.0
14/01:30am SW 4 6 - - - - 7 - - 17.5 1020.5 0.0
14/01:00am SW 3 4 - - - - 10 - - 17.7 1020.8 0.0
14/12:30am SW 3 5 - - - - 10 - - 17.8 1021.0 0.0
14/12:29am SW 3 5 - - - - 10 - - 17.8 1021.0 0.0
14/12:19am SW 3 5 - - - - 5 - - 17.7 1021.2 0.0
14/12:14am SW 4 5 - - - - 7 - - 17.7 1021.2 0.0
14/12:04am SSW 4 5 - - - - 5 - - 17.6 1021.2 0.0
14/12:00am SSW 4 5 - - - - 9 - - 17.5 1021.2 0.0
 
Date/Time
EST
Wind Sea
Height
m
Swell Vis
km
Cloud Weather Temp
°C
Press
MSL
hPa
Rain since
9am
mm
Dir  Spd
kts
Gust
kts
Height
m
Period
s
Dir
13/11:30pm CALM 0 0 - - - - 10 - - 17.3 1021.2 0.0
13/11:00pm CALM 0 0 - - - - 10 - - 17.6 1021.4 0.0
13/10:30pm CALM 0 0 - - - - 10 - - 17.9 1021.5 0.0
13/10:00pm CALM 0 0 - - - - 10 - - 18.2 1021.5 0.0
13/09:30pm SW 1 4 - - - - 7 - - 19.0 1021.4 0.0
13/09:00pm SW 2 4 - - - - 10 Partly cloudy - 19.7 1021.5 0.0
13/08:30pm CALM 0 0 - - - - 10 Cloudy - 20.0 1021.3 0.0
13/08:00pm S 2 4 - - - - 10 Partly cloudy - 20.3 1021.1 0.0
13/07:30pm SSE 3 4 - - - - 10 - - 21.7 1020.7 0.0
13/07:00pm SE 7 11 - - - - 10 - - 22.3 1020.6 0.0
13/06:30pm SE 7 11 - - - - 10 Partly cloudy - 22.4 1020.3 0.0
13/06:00pm SE 7 12 - - - - 10 Mostly clear - 22.8 1019.8 0.0
13/05:30pm SE 8 11 - - - - 10 - - 23.7 1019.5 0.0
13/05:00pm SE 9 13 - - - - 10 - - 24.4 1019.1 0.0
13/04:30pm SE 8 12 - - - - 10 - - 25.2 1018.8 0.0
13/04:00pm ESE 9 14 - - - - 10 - - 25.8 1018.5 0.0
13/03:30pm ESE 9 14 - - - - 10 - - 26.5 1018.4 0.0
13/03:00pm ESE 11 14 - - - - 10 - - 26.3 1018.4 0.0
13/02:30pm ESE 11 15 - - - - 10 - - 27.1 1018.5 0.0
13/02:00pm SE 10 15 - - - - 10 - - 27.0 1018.5 0.0
13/01:30pm ESE 11 16 - - - - 10 - - 26.8 1018.7 0.0
13/01:00pm SE 10 16 - - - - 10 Partly cloudy - 26.4 1019.0 0.0
13/12:30pm ESE 11 17 - - - - 10 Partly cloudy - 27.1 1019.3 0.0
13/12:00pm SE 8 13 - - - - 10 - - 27.2 1019.7 0.0
13/11:30am ESE 10 15 - - - - 10 - - 27.2 1020.1 0.0
13/11:00am SSE 9 14 - - - - 10 - - 26.6 1020.5 0.0
13/10:30am SSE 8 12 - - - - 10 - - 26.4 1020.7 0.0
13/10:00am SE 7 11 - - - - 10 - - 25.9 1020.7 0.0
13/09:30am S 7 10 - - - - 10 Partly cloudy - 24.9 1020.8 0.0
13/09:00am SSW 6 10 - - - - 10 Mostly clear - 23.7 1020.8 0.0

Other formats

Comma delimited format used in spreadsheet applications
http://www.bom.gov.au/fwo/IDQ60701/IDQ60701.95565.axf

JavaScript Object Notation format (JSON) in row-major order
http://www.bom.gov.au/fwo/IDQ60701/IDQ60701.95565.json

Data quality

Most of these data are generated automatically and are frequently updated. Quality checks on data are not normally performed. It is possible for incorrect values to appear. Refer to information at About Latest Weather Observations and please check the disclaimer before using these data.